Terminal Aerodrome Forecast
Issued by NWS

Home | Current Version | Previous Version | Text Only | Print | Product List | Glossary On
Versions: 1 2 3 4 5 6 7 8 9 10 11 12 13 14 15
000
FTUS43 KDTX 251720
TAFPTK
TAF
KPTK 251720Z 2518/2618 13009KT P6SM SCT035 SCT090
     FM260200 12007KT P6SM SCT090 BKN150
     FM260800 13005KT 5SM BR BKN060
     FM261300 14010KT P6SM SCT090 BKN150
     FM261700 16014G24KT P6SM SCT150=

USA.gov is the U.S. government's official web portal to all federal, state and local government web resources and services.